sensor_id;sensor_type;location;lat;lon;timestamp;P1;durP1;ratioP1;P2;durP2;ratioP2
64674;SDS011;51090;51.512;11.332;2022-08-19T00:00:35;105.38;;;38.83;;
64674;SDS011;51090;51.512;11.332;2022-08-19T00:03:06;72.25;;;36.03;;
64674;SDS011;51090;51.512;11.332;2022-08-19T00:05:32;76.80;;;35.88;;
64674;SDS011;51090;51.512;11.332;2022-08-19T00:07:59;80.20;;;38.22;;
64674;SDS011;51090;51.512;11.332;2022-08-19T00:10:25;74.43;;;35.90;;
64674;SDS011;51090;51.512;11.332;2022-08-19T00:12:50;60.15;;;30.98;;
64674;SDS011;51090;51.512;11.332;2022-08-19T00:15:53;66.18;;;34.90;;
64674;SDS011;51090;51.512;11.332;2022-08-19T00:18:20;54.40;;;30.70;;
64674;SDS011;51090;51.512;11.332;2022-08-19T00:20:46;81.07;;;38.75;;
64674;SDS011;51090;51.512;11.332;2022-08-19T00:23:11;75.20;;;38.17;;
64674;SDS011;51090;51.512;11.332;2022-08-19T00:25:37;73.47;;;35.60;;
64674;SDS011;51090;51.512;11.332;2022-08-19T00:28:03;67.95;;;36.72;;
64674;SDS011;51090;51.512;11.332;2022-08-19T00:30:29;66.80;;;35.15;;
64674;SDS011;51090;51.512;11.332;2022-08-19T00:32:56;69.28;;;36.72;;
64674;SDS011;51090;51.512;11.332;2022-08-19T00:35:23;51.92;;;32.30;;
64674;SDS011;51090;51.512;11.332;2022-08-19T00:37:49;72.35;;;38.38;;
64674;SDS011;51090;51.512;11.332;2022-08-19T00:40:16;68.57;;;37.58;;
64674;SDS011;51090;51.512;11.332;2022-08-19T00:43:43;55.33;;;30.90;;
64674;SDS011;51090;51.512;11.332;2022-08-19T00:47:08;55.40;;;31.83;;
64674;SDS011;51090;51.512;11.332;2022-08-19T00:49:35;62.85;;;34.78;;
64674;SDS011;51090;51.512;11.332;2022-08-19T00:52:07;61.75;;;34.22;;
64674;SDS011;51090;51.512;11.332;2022-08-19T00:54:40;78.72;;;38.58;;
64674;SDS011;51090;51.512;11.332;2022-08-19T00:58:08;73.57;;;37.97;;
64674;SDS011;51090;51.512;11.332;2022-08-19T01:01:36;59.80;;;31.83;;
64674;SDS011;51090;51.512;11.332;2022-08-19T01:05:03;45.80;;;27.05;;
64674;SDS011;51090;51.512;11.332;2022-08-19T01:07:34;55.85;;;29.88;;
64674;SDS011;51090;51.512;11.332;2022-08-19T01:10:03;74.03;;;38.70;;
64674;SDS011;51090;51.512;11.332;2022-08-19T01:13:30;94.88;;;44.72;;
64674;SDS011;51090;51.512;11.332;2022-08-19T01:16:56;66.18;;;35.28;;
64674;SDS011;51090;51.512;11.332;2022-08-19T01:20:23;69.90;;;36.95;;
64674;SDS011;51090;51.512;11.332;2022-08-19T01:23:47;62.78;;;35.83;;
64674;SDS011;51090;51.512;11.332;2022-08-19T01:27:12;104.07;;;46.50;;
64674;SDS011;51090;51.512;11.332;2022-08-19T01:30:40;90.20;;;44.08;;
64674;SDS011;51090;51.512;11.332;2022-08-19T01:34:05;85.60;;;40.10;;
64674;SDS011;51090;51.512;11.332;2022-08-19T01:37:30;69.00;;;37.17;;
64674;SDS011;51090;51.512;11.332;2022-08-19T01:41:06;70.45;;;37.28;;
64674;SDS011;51090;51.512;11.332;2022-08-19T01:44:32;93.93;;;46.08;;
64674;SDS011;51090;51.512;11.332;2022-08-19T01:47:59;59.97;;;34.72;;
64674;SDS011;51090;51.512;11.332;2022-08-19T01:51:23;90.65;;;45.72;;
64674;SDS011;51090;51.512;11.332;2022-08-19T01:54:48;118.93;;;49.55;;
64674;SDS011;51090;51.512;11.332;2022-08-19T01:58:18;97.97;;;48.13;;
64674;SDS011;51090;51.512;11.332;2022-08-19T02:01:47;95.88;;;46.30;;
64674;SDS011;51090;51.512;11.332;2022-08-19T02:05:12;105.85;;;47.95;;
64674;SDS011;51090;51.512;11.332;2022-08-19T02:08:37;76.32;;;40.88;;
64674;SDS011;51090;51.512;11.332;2022-08-19T02:12:03;77.75;;;42.92;;
64674;SDS011;51090;51.512;11.332;2022-08-19T02:14:33;57.70;;;33.70;;
64674;SDS011;51090;51.512;11.332;2022-08-19T02:17:58;66.57;;;36.75;;
64674;SDS011;51090;51.512;11.332;2022-08-19T02:20:33;102.47;;;49.55;;
64674;SDS011;51090;51.512;11.332;2022-08-19T02:23:00;92.10;;;47.83;;
64674;SDS011;51090;51.512;11.332;2022-08-19T02:25:26;73.53;;;39.83;;
64674;SDS011;51090;51.512;11.332;2022-08-19T02:27:52;94.22;;;48.85;;
64674;SDS011;51090;51.512;11.332;2022-08-19T02:30:18;90.15;;;45.90;;
64674;SDS011;51090;51.512;11.332;2022-08-19T02:32:45;64.82;;;37.47;;
64674;SDS011;51090;51.512;11.332;2022-08-19T02:35:11;77.68;;;42.30;;
64674;SDS011;51090;51.512;11.332;2022-08-19T02:37:38;92.72;;;46.40;;
64674;SDS011;51090;51.512;11.332;2022-08-19T02:40:24;63.88;;;37.90;;
64674;SDS011;51090;51.512;11.332;2022-08-19T02:42:51;69.28;;;39.08;;
64674;SDS011;51090;51.512;11.332;2022-08-19T02:45:16;50.45;;;32.17;;
64674;SDS011;51090;51.512;11.332;2022-08-19T02:47:42;92.60;;;44.42;;
64674;SDS011;51090;51.512;11.332;2022-08-19T02:50:08;71.88;;;41.83;;
64674;SDS011;51090;51.512;11.332;2022-08-19T02:52:34;62.53;;;37.50;;
64674;SDS011;51090;51.512;11.332;2022-08-19T02:55:00;63.00;;;36.67;;
64674;SDS011;51090;51.512;11.332;2022-08-19T02:57:26;51.15;;;32.40;;
64674;SDS011;51090;51.512;11.332;2022-08-19T02:59:52;55.08;;;33.33;;
64674;SDS011;51090;51.512;11.332;2022-08-19T03:02:18;56.20;;;36.88;;
64674;SDS011;51090;51.512;11.332;2022-08-19T03:04:44;58.42;;;36.63;;
64674;SDS011;51090;51.512;11.332;2022-08-19T03:07:12;54.55;;;34.65;;
64674;SDS011;51090;51.512;11.332;2022-08-19T03:09:40;51.00;;;32.50;;
64674;SDS011;51090;51.512;11.332;2022-08-19T03:12:09;53.92;;;34.55;;
64674;SDS011;51090;51.512;11.332;2022-08-19T03:14:35;51.13;;;33.38;;
64674;SDS011;51090;51.512;11.332;2022-08-19T03:17:02;50.95;;;34.65;;
64674;SDS011;51090;51.512;11.332;2022-08-19T03:19:29;53.00;;;30.65;;
64674;SDS011;51090;51.512;11.332;2022-08-19T03:21:56;47.85;;;32.38;;
64674;SDS011;51090;51.512;11.332;2022-08-19T03:24:23;56.72;;;36.97;;
64674;SDS011;51090;51.512;11.332;2022-08-19T03:26:51;65.35;;;39.10;;
64674;SDS011;51090;51.512;11.332;2022-08-19T03:29:23;54.83;;;36.55;;
64674;SDS011;51090;51.512;11.332;2022-08-19T03:34:22;55.97;;;34.00;;
64674;SDS011;51090;51.512;11.332;2022-08-19T03:36:52;46.30;;;30.88;;
64674;SDS011;51090;51.512;11.332;2022-08-19T03:39:23;56.10;;;34.07;;
64674;SDS011;51090;51.512;11.332;2022-08-19T03:41:51;52.05;;;31.70;;
64674;SDS011;51090;51.512;11.332;2022-08-19T03:44:19;41.53;;;28.73;;
64674;SDS011;51090;51.512;11.332;2022-08-19T03:46:50;40.47;;;26.58;;
64674;SDS011;51090;51.512;11.332;2022-08-19T03:49:20;46.17;;;29.67;;
64674;SDS011;51090;51.512;11.332;2022-08-19T03:51:49;44.67;;;28.98;;
64674;SDS011;51090;51.512;11.332;2022-08-19T03:54:16;43.90;;;29.98;;
64674;SDS011;51090;51.512;11.332;2022-08-19T03:56:45;55.00;;;35.92;;
64674;SDS011;51090;51.512;11.332;2022-08-19T03:59:16;54.45;;;35.20;;
64674;SDS011;51090;51.512;11.332;2022-08-19T04:01:56;56.70;;;35.65;;
64674;SDS011;51090;51.512;11.332;2022-08-19T04:04:24;45.72;;;29.63;;
64674;SDS011;51090;51.512;11.332;2022-08-19T04:06:51;53.95;;;35.58;;
64674;SDS011;51090;51.512;11.332;2022-08-19T04:09:18;57.17;;;37.63;;
64674;SDS011;51090;51.512;11.332;2022-08-19T04:11:51;49.00;;;31.30;;
64674;SDS011;51090;51.512;11.332;2022-08-19T04:14:21;43.80;;;31.80;;
64674;SDS011;51090;51.512;11.332;2022-08-19T04:16:50;49.53;;;32.85;;
64674;SDS011;51090;51.512;11.332;2022-08-19T04:19:17;47.28;;;30.67;;
64674;SDS011;51090;51.512;11.332;2022-08-19T04:21:46;58.20;;;38.40;;
64674;SDS011;51090;51.512;11.332;2022-08-19T04:24:15;58.08;;;36.78;;
64674;SDS011;51090;51.512;11.332;2022-08-19T04:26:41;54.90;;;33.42;;
64674;SDS011;51090;51.512;11.332;2022-08-19T04:29:12;51.97;;;30.33;;
64674;SDS011;51090;51.512;11.332;2022-08-19T04:31:41;59.13;;;39.08;;
64674;SDS011;51090;51.512;11.332;2022-08-19T04:34:10;55.78;;;36.63;;
64674;SDS011;51090;51.512;11.332;2022-08-19T04:36:39;53.78;;;34.80;;
64674;SDS011;51090;51.512;11.332;2022-08-19T04:39:07;48.53;;;29.83;;
64674;SDS011;51090;51.512;11.332;2022-08-19T04:41:42;51.40;;;33.60;;
64674;SDS011;51090;51.512;11.332;2022-08-19T04:44:27;41.55;;;26.75;;
64674;SDS011;51090;51.512;11.332;2022-08-19T04:46:55;43.28;;;30.30;;
64674;SDS011;51090;51.512;11.332;2022-08-19T04:49:22;44.90;;;31.30;;
64674;SDS011;51090;51.512;11.332;2022-08-19T04:51:49;34.95;;;24.98;;
64674;SDS011;51090;51.512;11.332;2022-08-19T04:54:18;53.70;;;33.67;;
64674;SDS011;51090;51.512;11.332;2022-08-19T04:56:47;58.17;;;35.60;;
64674;SDS011;51090;51.512;11.332;2022-08-19T04:59:18;46.50;;;31.48;;
64674;SDS011;51090;51.512;11.332;2022-08-19T05:01:45;42.28;;;28.55;;
64674;SDS011;51090;51.512;11.332;2022-08-19T05:04:14;32.63;;;24.75;;
64674;SDS011;51090;51.512;11.332;2022-08-19T05:06:45;37.72;;;24.15;;
64674;SDS011;51090;51.512;11.332;2022-08-19T05:09:13;37.45;;;24.63;;
64674;SDS011;51090;51.512;11.332;2022-08-19T05:11:40;33.50;;;22.02;;
64674;SDS011;51090;51.512;11.332;2022-08-19T05:14:07;38.58;;;24.60;;
64674;SDS011;51090;51.512;11.332;2022-08-19T05:16:33;33.30;;;22.73;;
64674;SDS011;51090;51.512;11.332;2022-08-19T05:18:59;29.55;;;19.42;;
64674;SDS011;51090;51.512;11.332;2022-08-19T05:21:43;31.75;;;21.55;;
64674;SDS011;51090;51.512;11.332;2022-08-19T05:24:29;28.40;;;20.67;;
64674;SDS011;51090;51.512;11.332;2022-08-19T05:26:55;25.25;;;18.00;;
64674;SDS011;51090;51.512;11.332;2022-08-19T05:29:22;28.27;;;19.45;;
64674;SDS011;51090;51.512;11.332;2022-08-19T05:31:50;29.90;;;18.67;;
64674;SDS011;51090;51.512;11.332;2022-08-19T05:34:18;29.13;;;20.13;;
64674;SDS011;51090;51.512;11.332;2022-08-19T05:36:46;28.92;;;19.70;;
64674;SDS011;51090;51.512;11.332;2022-08-19T05:39:15;25.98;;;17.25;;
64674;SDS011;51090;51.512;11.332;2022-08-19T05:41:46;26.40;;;17.95;;
64674;SDS011;51090;51.512;11.332;2022-08-19T05:44:25;23.58;;;15.30;;
64674;SDS011;51090;51.512;11.332;2022-08-19T05:46:56;21.08;;;14.02;;
64674;SDS011;51090;51.512;11.332;2022-08-19T05:49:24;20.13;;;14.02;;
64674;SDS011;51090;51.512;11.332;2022-08-19T05:51:51;21.58;;;14.77;;
64674;SDS011;51090;51.512;11.332;2022-08-19T05:54:18;23.58;;;14.55;;
64674;SDS011;51090;51.512;11.332;2022-08-19T05:56:44;19.00;;;13.35;;
64674;SDS011;51090;51.512;11.332;2022-08-19T05:59:13;21.90;;;13.75;;
64674;SDS011;51090;51.512;11.332;2022-08-19T06:01:41;23.55;;;15.75;;
64674;SDS011;51090;51.512;11.332;2022-08-19T06:04:11;21.23;;;12.95;;
64674;SDS011;51090;51.512;11.332;2022-08-19T06:09:13;19.23;;;11.60;;
64674;SDS011;51090;51.512;11.332;2022-08-19T06:11:41;20.10;;;13.50;;
64674;SDS011;51090;51.512;11.332;2022-08-19T06:14:14;22.05;;;11.95;;
64674;SDS011;51090;51.512;11.332;2022-08-19T06:16:43;16.90;;;11.70;;
64674;SDS011;51090;51.512;11.332;2022-08-19T06:19:11;17.60;;;12.57;;
64674;SDS011;51090;51.512;11.332;2022-08-19T06:21:43;17.15;;;12.65;;
64674;SDS011;51090;51.512;11.332;2022-08-19T06:24:13;19.73;;;13.75;;
64674;SDS011;51090;51.512;11.332;2022-08-19T06:26:43;22.20;;;14.77;;
64674;SDS011;51090;51.512;11.332;2022-08-19T06:29:12;22.60;;;15.13;;
64674;SDS011;51090;51.512;11.332;2022-08-19T06:31:42;22.40;;;15.00;;
64674;SDS011;51090;51.512;11.332;2022-08-19T06:38:59;19.90;;;13.82;;
64674;SDS011;51090;51.512;11.332;2022-08-19T06:41:39;22.42;;;15.32;;
64674;SDS011;51090;51.512;11.332;2022-08-19T06:44:09;22.92;;;14.93;;
64674;SDS011;51090;51.512;11.332;2022-08-19T06:46:36;26.00;;;17.58;;
64674;SDS011;51090;51.512;11.332;2022-08-19T06:49:03;27.13;;;16.70;;
64674;SDS011;51090;51.512;11.332;2022-08-19T06:51:30;24.33;;;16.88;;
64674;SDS011;51090;51.512;11.332;2022-08-19T06:53:57;25.85;;;18.17;;
64674;SDS011;51090;51.512;11.332;2022-08-19T06:56:25;24.13;;;17.27;;
64674;SDS011;51090;51.512;11.332;2022-08-19T06:58:57;25.63;;;18.25;;
64674;SDS011;51090;51.512;11.332;2022-08-19T07:01:23;23.00;;;15.43;;
64674;SDS011;51090;51.512;11.332;2022-08-19T07:03:49;28.17;;;18.30;;
64674;SDS011;51090;51.512;11.332;2022-08-19T07:06:15;23.42;;;16.80;;
64674;SDS011;51090;51.512;11.332;2022-08-19T07:08:45;22.90;;;18.00;;
64674;SDS011;51090;51.512;11.332;2022-08-19T07:11:13;23.40;;;16.08;;
64674;SDS011;51090;51.512;11.332;2022-08-19T07:13:45;24.45;;;17.95;;
64674;SDS011;51090;51.512;11.332;2022-08-19T07:16:13;27.92;;;18.58;;
64674;SDS011;51090;51.512;11.332;2022-08-19T07:18:42;26.25;;;18.58;;
64674;SDS011;51090;51.512;11.332;2022-08-19T07:21:10;21.65;;;16.05;;
64674;SDS011;51090;51.512;11.332;2022-08-19T07:23:40;25.58;;;17.90;;
64674;SDS011;51090;51.512;11.332;2022-08-19T07:26:11;24.20;;;18.80;;
64674;SDS011;51090;51.512;11.332;2022-08-19T07:28:45;21.88;;;15.25;;
64674;SDS011;51090;51.512;11.332;2022-08-19T07:31:16;21.45;;;15.65;;
64674;SDS011;51090;51.512;11.332;2022-08-19T07:33:46;21.38;;;16.08;;
64674;SDS011;51090;51.512;11.332;2022-08-19T07:36:14;20.52;;;15.10;;
64674;SDS011;51090;51.512;11.332;2022-08-19T07:38:57;18.65;;;13.98;;
64674;SDS011;51090;51.512;11.332;2022-08-19T07:41:25;18.55;;;13.23;;
64674;SDS011;51090;51.512;11.332;2022-08-19T07:43:56;17.60;;;12.53;;
64674;SDS011;51090;51.512;11.332;2022-08-19T07:46:28;16.40;;;11.93;;
64674;SDS011;51090;51.512;11.332;2022-08-19T07:48:56;15.25;;;10.63;;
64674;SDS011;51090;51.512;11.332;2022-08-19T07:51:22;15.80;;;11.93;;
64674;SDS011;51090;51.512;11.332;2022-08-19T07:53:49;18.00;;;11.30;;
64674;SDS011;51090;51.512;11.332;2022-08-19T07:56:16;17.85;;;10.60;;
64674;SDS011;51090;51.512;11.332;2022-08-19T07:58:44;15.05;;;10.40;;
64674;SDS011;51090;51.512;11.332;2022-08-19T08:01:14;14.30;;;10.90;;
64674;SDS011;51090;51.512;11.332;2022-08-19T08:03:49;15.63;;;10.25;;
64674;SDS011;51090;51.512;11.332;2022-08-19T08:06:36;15.27;;;10.00;;
64674;SDS011;51090;51.512;11.332;2022-08-19T08:09:23;15.23;;;11.10;;
64674;SDS011;51090;51.512;11.332;2022-08-19T08:11:58;16.67;;;11.20;;
64674;SDS011;51090;51.512;11.332;2022-08-19T08:14:29;15.85;;;11.00;;
64674;SDS011;51090;51.512;11.332;2022-08-19T08:16:57;19.00;;;11.98;;
64674;SDS011;51090;51.512;11.332;2022-08-19T08:19:24;16.60;;;10.13;;
64674;SDS011;51090;51.512;11.332;2022-08-19T08:21:54;16.63;;;11.40;;
64674;SDS011;51090;51.512;11.332;2022-08-19T08:24:22;15.40;;;11.10;;
64674;SDS011;51090;51.512;11.332;2022-08-19T08:26:50;15.10;;;10.45;;
64674;SDS011;51090;51.512;11.332;2022-08-19T08:29:16;16.35;;;10.30;;
64674;SDS011;51090;51.512;11.332;2022-08-19T08:31:42;16.30;;;10.63;;
64674;SDS011;51090;51.512;11.332;2022-08-19T08:34:09;14.63;;;10.43;;
64674;SDS011;51090;51.512;11.332;2022-08-19T08:36:37;15.82;;;11.00;;
64674;SDS011;51090;51.512;11.332;2022-08-19T08:39:11;19.08;;;12.65;;
64674;SDS011;51090;51.512;11.332;2022-08-19T08:41:44;23.10;;;15.48;;
64674;SDS011;51090;51.512;11.332;2022-08-19T08:47:24;22.50;;;14.98;;
64674;SDS011;51090;51.512;11.332;2022-08-19T08:52:25;22.48;;;15.32;;
64674;SDS011;51090;51.512;11.332;2022-08-19T08:55:03;22.23;;;15.15;;
64674;SDS011;51090;51.512;11.332;2022-08-19T08:57:36;20.98;;;14.10;;
64674;SDS011;51090;51.512;11.332;2022-08-19T09:00:35;24.05;;;14.18;;
64674;SDS011;51090;51.512;11.332;2022-08-19T09:03:17;22.92;;;14.75;;
64674;SDS011;51090;51.512;11.332;2022-08-19T09:06:31;22.25;;;14.38;;
64674;SDS011;51090;51.512;11.332;2022-08-19T09:09:04;22.50;;;14.50;;
64674;SDS011;51090;51.512;11.332;2022-08-19T09:17:30;20.75;;;15.25;;
64674;SDS011;51090;51.512;11.332;2022-08-19T09:22:36;21.52;;;15.02;;
64674;SDS011;51090;51.512;11.332;2022-08-19T09:25:03;21.27;;;14.73;;
64674;SDS011;51090;51.512;11.332;2022-08-19T09:27:31;21.67;;;13.65;;
64674;SDS011;51090;51.512;11.332;2022-08-19T09:29:57;20.92;;;13.85;;
64674;SDS011;51090;51.512;11.332;2022-08-19T09:32:23;19.30;;;13.98;;
64674;SDS011;51090;51.512;11.332;2022-08-19T09:34:50;15.82;;;11.82;;
64674;SDS011;51090;51.512;11.332;2022-08-19T09:37:19;16.95;;;12.38;;
64674;SDS011;51090;51.512;11.332;2022-08-19T09:39:45;15.25;;;11.63;;
64674;SDS011;51090;51.512;11.332;2022-08-19T09:42:10;15.50;;;10.98;;
64674;SDS011;51090;51.512;11.332;2022-08-19T09:44:39;15.02;;;11.60;;
64674;SDS011;51090;51.512;11.332;2022-08-19T09:47:06;14.32;;;10.98;;
64674;SDS011;51090;51.512;11.332;2022-08-19T09:49:34;12.88;;;10.00;;
64674;SDS011;51090;51.512;11.332;2022-08-19T09:51:59;13.43;;;10.70;;
64674;SDS011;51090;51.512;11.332;2022-08-19T09:54:26;12.88;;;9.15;;
64674;SDS011;51090;51.512;11.332;2022-08-19T09:56:52;12.70;;;10.00;;
64674;SDS011;51090;51.512;11.332;2022-08-19T09:59:19;16.23;;;10.13;;
64674;SDS011;51090;51.512;11.332;2022-08-19T10:01:45;12.93;;;9.63;;
64674;SDS011;51090;51.512;11.332;2022-08-19T10:04:11;12.88;;;9.00;;
64674;SDS011;51090;51.512;11.332;2022-08-19T10:06:38;13.07;;;10.02;;
64674;SDS011;51090;51.512;11.332;2022-08-19T10:09:05;12.98;;;9.32;;
64674;SDS011;51090;51.512;11.332;2022-08-19T10:11:33;13.30;;;9.90;;
64674;SDS011;51090;51.512;11.332;2022-08-19T10:13:59;12.60;;;9.35;;
64674;SDS011;51090;51.512;11.332;2022-08-19T10:16:27;10.15;;;8.25;;
64674;SDS011;51090;51.512;11.332;2022-08-19T10:18:53;9.77;;;7.65;;
64674;SDS011;51090;51.512;11.332;2022-08-19T10:21:21;12.30;;;7.65;;
64674;SDS011;51090;51.512;11.332;2022-08-19T10:23:57;9.27;;;7.22;;
64674;SDS011;51090;51.512;11.332;2022-08-19T10:26:34;9.25;;;7.07;;
64674;SDS011;51090;51.512;11.332;2022-08-19T10:29:03;9.13;;;6.95;;
64674;SDS011;51090;51.512;11.332;2022-08-19T10:31:31;8.77;;;6.80;;
64674;SDS011;51090;51.512;11.332;2022-08-19T10:33:58;10.02;;;7.35;;
64674;SDS011;51090;51.512;11.332;2022-08-19T10:36:25;10.52;;;8.05;;
64674;SDS011;51090;51.512;11.332;2022-08-19T10:39:01;7.95;;;6.60;;
64674;SDS011;51090;51.512;11.332;2022-08-19T10:41:32;8.73;;;6.95;;
64674;SDS011;51090;51.512;11.332;2022-08-19T10:44:02;8.68;;;6.80;;
64674;SDS011;51090;51.512;11.332;2022-08-19T10:46:33;8.50;;;6.57;;
64674;SDS011;51090;51.512;11.332;2022-08-19T10:49:02;9.23;;;6.65;;
64674;SDS011;51090;51.512;11.332;2022-08-19T10:51:30;6.75;;;5.47;;
64674;SDS011;51090;51.512;11.332;2022-08-19T10:54:16;7.00;;;5.30;;
64674;SDS011;51090;51.512;11.332;2022-08-19T10:56:42;7.38;;;5.30;;
64674;SDS011;51090;51.512;11.332;2022-08-19T11:01:49;6.47;;;4.75;;
64674;SDS011;51090;51.512;11.332;2022-08-19T11:04:16;7.43;;;5.07;;
64674;SDS011;51090;51.512;11.332;2022-08-19T11:06:44;5.28;;;4.07;;
64674;SDS011;51090;51.512;11.332;2022-08-19T11:09:30;6.13;;;4.07;;
64674;SDS011;51090;51.512;11.332;2022-08-19T11:12:01;6.20;;;4.05;;
64674;SDS011;51090;51.512;11.332;2022-08-19T11:14:28;5.47;;;4.40;;
64674;SDS011;51090;51.512;11.332;2022-08-19T11:16:55;6.75;;;4.80;;
64674;SDS011;51090;51.512;11.332;2022-08-19T11:19:22;6.35;;;4.85;;
64674;SDS011;51090;51.512;11.332;2022-08-19T11:21:48;8.07;;;4.88;;
64674;SDS011;51090;51.512;11.332;2022-08-19T11:24:18;5.80;;;4.38;;
64674;SDS011;51090;51.512;11.332;2022-08-19T11:26:47;8.48;;;4.85;;
64674;SDS011;51090;51.512;11.332;2022-08-19T11:29:17;8.88;;;5.28;;
64674;SDS011;51090;51.512;11.332;2022-08-19T11:31:46;9.65;;;6.03;;
64674;SDS011;51090;51.512;11.332;2022-08-19T11:34:23;9.30;;;6.03;;
64674;SDS011;51090;51.512;11.332;2022-08-19T11:36:52;10.27;;;6.55;;
64674;SDS011;51090;51.512;11.332;2022-08-19T11:39:22;8.60;;;6.57;;
64674;SDS011;51090;51.512;11.332;2022-08-19T11:41:48;9.52;;;5.95;;
64674;SDS011;51090;51.512;11.332;2022-08-19T11:44:14;9.18;;;6.25;;
64674;SDS011;51090;51.512;11.332;2022-08-19T11:46:40;7.82;;;5.45;;
64674;SDS011;51090;51.512;11.332;2022-08-19T11:49:12;7.90;;;4.85;;
64674;SDS011;51090;51.512;11.332;2022-08-19T11:51:40;8.90;;;5.93;;
64674;SDS011;51090;51.512;11.332;2022-08-19T11:54:08;9.52;;;6.57;;
64674;SDS011;51090;51.512;11.332;2022-08-19T11:56:36;9.77;;;5.43;;
64674;SDS011;51090;51.512;11.332;2022-08-19T11:59:03;8.88;;;5.75;;
64674;SDS011;51090;51.512;11.332;2022-08-19T12:01:28;8.90;;;6.18;;
64674;SDS011;51090;51.512;11.332;2022-08-19T12:03:55;7.40;;;5.53;;
64674;SDS011;51090;51.512;11.332;2022-08-19T12:06:28;7.18;;;5.82;;
64674;SDS011;51090;51.512;11.332;2022-08-19T12:08:59;8.57;;;6.05;;
64674;SDS011;51090;51.512;11.332;2022-08-19T12:11:30;7.53;;;6.27;;
64674;SDS011;51090;51.512;11.332;2022-08-19T12:13:56;6.68;;;5.38;;
64674;SDS011;51090;51.512;11.332;2022-08-19T12:16:25;8.10;;;6.05;;
64674;SDS011;51090;51.512;11.332;2022-08-19T12:18:53;9.38;;;6.25;;
64674;SDS011;51090;51.512;11.332;2022-08-19T12:21:25;9.85;;;6.88;;
64674;SDS011;51090;51.512;11.332;2022-08-19T12:23:56;9.65;;;6.75;;
64674;SDS011;51090;51.512;11.332;2022-08-19T12:26:24;11.68;;;6.85;;
64674;SDS011;51090;51.512;11.332;2022-08-19T12:28:51;8.88;;;6.93;;
64674;SDS011;51090;51.512;11.332;2022-08-19T12:31:17;10.10;;;6.88;;
64674;SDS011;51090;51.512;11.332;2022-08-19T12:33:44;9.88;;;6.88;;
64674;SDS011;51090;51.512;11.332;2022-08-19T12:36:12;9.63;;;7.18;;
64674;SDS011;51090;51.512;11.332;2022-08-19T12:38:40;11.10;;;7.57;;
64674;SDS011;51090;51.512;11.332;2022-08-19T12:41:08;10.57;;;8.30;;
64674;SDS011;51090;51.512;11.332;2022-08-19T12:43:37;11.73;;;7.90;;
64674;SDS011;51090;51.512;11.332;2022-08-19T12:46:03;11.52;;;7.85;;
64674;SDS011;51090;51.512;11.332;2022-08-19T12:48:30;11.05;;;8.25;;
64674;SDS011;51090;51.512;11.332;2022-08-19T12:50:58;9.88;;;8.02;;
64674;SDS011;51090;51.512;11.332;2022-08-19T12:53:23;9.88;;;7.63;;
64674;SDS011;51090;51.512;11.332;2022-08-19T12:55:59;11.57;;;8.43;;
64674;SDS011;51090;51.512;11.332;2022-08-19T12:58:25;10.63;;;8.70;;
64674;SDS011;51090;51.512;11.332;2022-08-19T13:00:51;11.93;;;8.23;;
64674;SDS011;51090;51.512;11.332;2022-08-19T13:03:17;11.57;;;8.40;;
64674;SDS011;51090;51.512;11.332;2022-08-19T13:05:43;11.88;;;8.75;;
64674;SDS011;51090;51.512;11.332;2022-08-19T13:08:09;12.20;;;8.77;;
64674;SDS011;51090;51.512;11.332;2022-08-19T13:10:36;11.85;;;9.57;;
64674;SDS011;51090;51.512;11.332;2022-08-19T13:13:03;14.55;;;9.52;;
64674;SDS011;51090;51.512;11.332;2022-08-19T13:15:33;11.20;;;8.68;;
64674;SDS011;51090;51.512;11.332;2022-08-19T13:18:01;12.50;;;9.48;;
64674;SDS011;51090;51.512;11.332;2022-08-19T13:20:27;13.75;;;10.10;;
64674;SDS011;51090;51.512;11.332;2022-08-19T13:22:54;13.55;;;10.00;;
64674;SDS011;51090;51.512;11.332;2022-08-19T13:25:21;14.13;;;10.20;;
64674;SDS011;51090;51.512;11.332;2022-08-19T13:27:48;13.25;;;10.07;;
64674;SDS011;51090;51.512;11.332;2022-08-19T13:30:16;12.13;;;9.77;;
64674;SDS011;51090;51.512;11.332;2022-08-19T13:33:02;11.20;;;9.27;;
64674;SDS011;51090;51.512;11.332;2022-08-19T13:35:49;12.75;;;9.65;;
64674;SDS011;51090;51.512;11.332;2022-08-19T13:38:23;12.18;;;9.45;;
64674;SDS011;51090;51.512;11.332;2022-08-19T13:40:49;11.90;;;8.38;;
64674;SDS011;51090;51.512;11.332;2022-08-19T13:43:18;12.18;;;8.38;;
64674;SDS011;51090;51.512;11.332;2022-08-19T13:45:47;10.90;;;8.50;;
64674;SDS011;51090;51.512;11.332;2022-08-19T13:48:14;10.23;;;8.27;;
64674;SDS011;51090;51.512;11.332;2022-08-19T13:50:44;11.38;;;8.40;;
64674;SDS011;51090;51.512;11.332;2022-08-19T13:53:12;10.52;;;8.40;;
64674;SDS011;51090;51.512;11.332;2022-08-19T13:55:38;11.30;;;8.73;;
64674;SDS011;51090;51.512;11.332;2022-08-19T13:58:05;13.98;;;8.85;;
64674;SDS011;51090;51.512;11.332;2022-08-19T14:00:33;11.05;;;8.95;;
64674;SDS011;51090;51.512;11.332;2022-08-19T14:03:02;12.65;;;8.93;;
64674;SDS011;51090;51.512;11.332;2022-08-19T14:05:28;11.73;;;9.10;;
64674;SDS011;51090;51.512;11.332;2022-08-19T14:07:55;12.20;;;8.77;;
64674;SDS011;51090;51.512;11.332;2022-08-19T14:10:21;15.38;;;9.50;;
64674;SDS011;51090;51.512;11.332;2022-08-19T14:12:49;11.68;;;8.55;;
64674;SDS011;51090;51.512;11.332;2022-08-19T14:15:20;11.90;;;8.43;;
64674;SDS011;51090;51.512;11.332;2022-08-19T14:17:48;11.70;;;7.97;;
64674;SDS011;51090;51.512;11.332;2022-08-19T14:20:14;11.63;;;8.07;;
64674;SDS011;51090;51.512;11.332;2022-08-19T14:22:40;10.13;;;8.13;;
64674;SDS011;51090;51.512;11.332;2022-08-19T14:25:08;10.10;;;8.25;;
64674;SDS011;51090;51.512;11.332;2022-08-19T14:27:37;11.63;;;8.85;;
64674;SDS011;51090;51.512;11.332;2022-08-19T14:30:05;10.65;;;7.80;;
64674;SDS011;51090;51.512;11.332;2022-08-19T14:32:34;10.57;;;8.15;;
64674;SDS011;51090;51.512;11.332;2022-08-19T14:35:01;11.43;;;8.95;;
64674;SDS011;51090;51.512;11.332;2022-08-19T14:37:28;9.15;;;8.25;;
64674;SDS011;51090;51.512;11.332;2022-08-19T14:39:53;11.13;;;8.40;;
64674;SDS011;51090;51.512;11.332;2022-08-19T14:42:19;10.95;;;8.10;;
64674;SDS011;51090;51.512;11.332;2022-08-19T14:44:45;9.38;;;7.93;;
64674;SDS011;51090;51.512;11.332;2022-08-19T14:47:11;13.32;;;8.80;;
64674;SDS011;51090;51.512;11.332;2022-08-19T14:49:36;9.50;;;7.57;;
64674;SDS011;51090;51.512;11.332;2022-08-19T14:52:03;12.68;;;8.93;;
64674;SDS011;51090;51.512;11.332;2022-08-19T14:54:29;12.93;;;8.15;;
64674;SDS011;51090;51.512;11.332;2022-08-19T14:56:55;10.63;;;8.63;;
64674;SDS011;51090;51.512;11.332;2022-08-19T14:59:20;10.27;;;8.40;;
64674;SDS011;51090;51.512;11.332;2022-08-19T15:01:46;11.25;;;7.90;;
64674;SDS011;51090;51.512;11.332;2022-08-19T15:04:12;8.82;;;6.93;;
64674;SDS011;51090;51.512;11.332;2022-08-19T15:06:38;9.75;;;7.63;;
64674;SDS011;51090;51.512;11.332;2022-08-19T15:09:04;11.35;;;8.25;;
64674;SDS011;51090;51.512;11.332;2022-08-19T15:11:30;10.38;;;7.80;;
64674;SDS011;51090;51.512;11.332;2022-08-19T15:13:57;10.15;;;7.35;;
64674;SDS011;51090;51.512;11.332;2022-08-19T15:16:24;9.18;;;7.25;;